NCAR-RAP Real-Time Weather Data

Output produced by METARs form (08 May 2021  01:19 UTC)
found at http://weather.rap.ucar.edu/surface/
 
KFAR 080053Z AUTO 04007KT 10SM CLR 13/M07 A3008 RMK AO2 SLP193 T01281072
KFAR 072353Z AUTO 04008KT 10SM CLR 14/M06 A3009 RMK AO2 SLP196 T01391061 10150 20111 56014
KFAR 072253Z AUTO 03007KT 10SM CLR 14/M07 A3010 RMK AO2 SLP200 T01391067
KFAR 072153Z 03008KT 10SM CLR 14/M06 A3012 RMK AO2 SLP206 T01441056
KFAR 072053Z 10SM CLR 13/M05 A3013 RMK AO2 SLP211 T01331050 56023
KFAR 071953Z 10SM CLR 13/M05 A3015 RMK AO2 PK WND 04027/1915 SLP217 T01281050
KFAR 071853Z 34012G20KT 10SM CLR 13/M05 A3017 RMK AO2 SLP222 T01281050
KFAR 071753Z 04013G22KT 10SM CLR 12/M04 A3020 RMK AO2 PK WND 36026/1709 SLP234 T01171044 10117 21011 58012
KFAR 071653Z 02010G22KT 10SM CLR 10/M05 A3022 RMK AO2 SLP240 T01001050
KFAR 071553Z 36015G20KT 10SM FEW050 09/M04 A3023 RMK AO2 SLP245 T00941044
KFAR 071453Z 01013G18KT 10SM CLR 08/M03 A3024 RMK AO2 SLP247 T00781033 50003
KFAR 071353Z 35009KT 10SM CLR 06/M03 A3025 RMK AO2 SLP251 T00561028
KFAR 071253Z 36008KT 10SM CLR 02/M04 A3024 RMK AO2 SLPNO T00221044 $
KFAR 071153Z 33008KT 10SM CLR M01/M06 A3023 RMK AO2 SLPNO T10111061 10039 21028 52014
KFAR 071053Z 35008KT 10SM CLR M02/M07 A3021 RMK AO2 SLPNO T10221067